Wendy C — WYB6131 — position and weather

sailwx.info

Track history (hours):
 
Tides and Currents Weather Stations Pressure Air Temp Water Temp Dewpoint Dewpoint Depression Visibility Wind Speed Wind Dir Waves Ship Positions

Wendy C

Owner: Harbor Towing & Fleeting, Inc., Metairie, LA. More information available from US FCC via Universal Licensing System and Coast Guard Vessel Documentation Center.

Last reported at 2014-Oct-31 17:32 UTC. Time now 2014-Oct-31 17:53 UTC.
Position N 29°59' W 090°01'.

Length 19 m; draft 3 m.

Type: Towing. MMSI: 366160126.

Date/timePositionNaut miles runAvg speedWind from/ knotsBaromVisibWave heightAir tempDewpointWater temp
2014-Oct-31 17:32N 29°59' W 090°01'0 0.1
2014-Oct-31 16:33N 29°59' W 090°01'0 0.1
2014-Oct-31 15:33N 29°59' W 090°01'0 0.1
2014-Oct-31 14:33N 29°59' W 090°01'0 0.0
2014-Oct-31 13:33N 29°59' W 090°01'0 0.5
2014-Oct-31 12:32N 29°60' W 090°01'1 0.7
2014-Oct-31 11:33N 29°59' W 090°01'1 1.0
2014-Oct-31 10:30N 29°58' W 090°02'0 0.2
2014-Oct-31 09:25N 29°58' W 090°02'2 0.1
2014-Oct-30 20:20N 29°56' W 090°00'2 1.2
2014-Oct-30 18:33N 29°55' W 089°58'4 3.9
2014-Oct-30 17:31N 29°58' W 090°02'3 2.8
2014-Oct-30 16:32N 29°60' W 089°59'2 1.7
2014-Oct-30 15:32N 29°59' W 090°01'0 0.0
2014-Oct-30 14:33N 29°59' W 090°01'2 1.6
2014-Oct-30 13:33N 29°58' W 090°02'2 2.0
2014-Oct-30 12:32N 29°56' W 090°00'0 0.2
2014-Oct-30 11:09N 29°56' W 090°00'1 0.0
2014-Oct-29 22:31N 29°56' W 089°60'1 0.5
2014-Oct-29 21:12N 29°56' W 090°00'0 0.4
2014-Oct-29 20:26N 29°57' W 090°01'3 3.1
2014-Oct-29 19:21N 29°60' W 090°00'0 0.0
2014-Oct-29 18:32N 29°60' W 090°00'0 0.0
2014-Oct-29 17:32N 29°60' W 090°00'2 2.4
2014-Oct-29 16:33N 29°58' W 090°02'1 1.0
2014-Oct-29 15:33N 29°57' W 090°01'2 1.9
2014-Oct-29 14:33N 29°56' W 089°59'1 0.9
2014-Oct-29 13:33N 29°56' W 090°00'0 0.0
2014-Oct-29 12:33N 29°56' W 090°00'0 0.0
2014-Oct-29 11:33N 29°56' W 090°00'3 2.6
2014-Oct-29 10:28N 29°55' W 089°57'2 1.6
2014-Oct-29 09:28N 29°56' W 089°59'1 0.1
2014-Oct-28 21:25N 29°56' W 090°00'0 0.0
2014-Oct-28 20:33N 29°56' W 090°00'1 1.2
2014-Oct-28 19:32N 29°57' W 090°01'1 0.9
2014-Oct-28 18:28N 29°58' W 090°02'1 1.5
2014-Oct-28 17:32N 29°59' W 090°01'0 0.1
2014-Oct-28 16:31N 29°59' W 090°01'0 0.1
2014-Oct-28 15:33N 29°59' W 090°01'0 0.1
2014-Oct-28 14:33N 29°59' W 090°01'2 1.4
2014-Oct-28 13:29N 29°58' W 090°02'2 2.0
2014-Oct-28 12:33N 29°56' W 090°00'0 0.0
2014-Oct-28 11:33N 29°56' W 090°00'0 0.0
2014-Oct-28 10:27N 29°56' W 090°00'2 0.1
2014-Oct-27 19:17N 29°58' W 090°02'0 0.0
2014-Oct-27 18:33N 29°58' W 090°02'2 2.2
2014-Oct-27 17:30N 29°60' W 089°60'3 2.7
2014-Oct-27 16:33N 29°58' W 090°02'0 0.1
2014-Oct-27 15:24N 29°58' W 090°02'0 0.2
2014-Oct-27 14:32N 29°58' W 090°02'2 2.1
2014-Oct-27 13:30N 29°60' W 090°00'3 3.6
2014-Oct-27 12:32N 30°00' W 089°56'2 1.5
2014-Oct-27 11:09N 30°01' W 089°54'3 5.4
2014-Oct-27 10:33N 30°00' W 089°57'4 3.7
2014-Oct-27 09:24N 29°58' W 090°02'2 1.6
2014-Oct-27 08:23N 29°57' W 090°00'0 0.5
2014-Oct-27 07:33N 29°56' W 090°00'2 0.1
2014-Oct-26 06:30N 29°58' W 090°01'2 1.6
2014-Oct-26 05:33N 29°60' W 090°01'2 2.5
2014-Oct-26 04:32N 29°57' W 090°02'1 0.7
2014-Oct-26 03:32N 29°57' W 090°01'1 1.2
2014-Oct-26 02:32N 29°58' W 090°02'1 0.9
2014-Oct-26 01:32N 29°58' W 090°02'3 2.7
2014-Oct-26 00:31N 29°60' W 089°59'3 3.3
2014-Oct-25 23:33N 29°57' W 090°01'1 1.2
2014-Oct-25 22:28N 29°56' W 090°00'0 0.1
2014-Oct-25 20:18N 29°56' W 090°00'2 0.2
2014-Oct-25 07:07N 29°58' W 090°02'1 0.5
2014-Oct-25 05:32N 29°59' W 090°01'2 1.9
2014-Oct-25 04:33N 29°57' W 090°01'1 0.3
2014-Oct-25 02:10N 29°56' W 090°00'2 0.6
2014-Oct-24 22:26N 29°55' W 089°58'2 1.5
2014-Oct-24 21:03N 29°56' W 090°00'0 0.5
2014-Oct-24 20:32N 29°56' W 089°60'1 0.6
2014-Oct-24 19:33N 29°56' W 090°00'2 2.1
2014-Oct-24 18:28N 29°58' W 090°02'1 0.9
2014-Oct-24 17:34N 29°58' W 090°02'0 0.5
2014-Oct-24 16:34N 29°58' W 090°01'0 0.1
2014-Oct-24 15:33N 29°58' W 090°01'1 0.6
2014-Oct-24 14:33N 29°58' W 090°02'0 0.1
2014-Oct-24 13:14N 29°58' W 090°02'0 0.4
2014-Oct-24 12:33N 29°57' W 090°02'1 0.1
2014-Oct-24 02:16N 29°57' W 090°01'2 2.7
2014-Oct-24 01:23N 29°59' W 090°01'1 1.6
2014-Oct-24 00:32N 29°60' W 090°00'2 2.2
2014-Oct-23 23:28N 29°58' W 090°02'1 1.6
2014-Oct-23 22:33N 29°57' W 090°01'0 0.1
2014-Oct-23 19:20N 29°56' W 090°00'0 0.0
2014-Oct-23 18:29N 29°56' W 090°00'0 0.0
2014-Oct-23 17:31N 29°56' W 090°00'0 0.0
2014-Oct-23 16:33N 29°56' W 090°00'0 0.0
2014-Oct-23 15:34N 29°56' W 090°00'0 0.0
2014-Oct-23 14:33N 29°56' W 090°00'0 0.0
2014-Oct-23 12:23N 29°56' W 090°00'2 0.1
2014-Oct-22 18:29N 29°56' W 089°58'0 0.0
2014-Oct-22 17:23N 29°56' W 089°58'  
Track history (hours):
 
Tides and Currents Weather Stations Pressure Air Temp Water Temp Dewpoint Dewpoint Depression Visibility Wind Speed Wind Dir Waves Ship Positions

Wendy C

Owner: Harbor Towing & Fleeting, Inc., Metairie, LA. More information available from US FCC via Universal Licensing System and Coast Guard Vessel Documentation Center.

Last reported at 2014-Oct-31 17:32 UTC. Time now 2014-Oct-31 17:53 UTC.
Position N 29°59' W 090°01'.

Length 19 m; draft 3 m.

Type: Towing. MMSI: 366160126.

Date/timePositionNaut miles runAvg speedWind from/ knotsBaromVisibWave heightAir tempDewpointWater temp
2014-Oct-31 17:32N 29°59' W 090°01'0 0.1
2014-Oct-31 16:33N 29°59' W 090°01'0 0.1
2014-Oct-31 15:33N 29°59' W 090°01'0 0.1
2014-Oct-31 14:33N 29°59' W 090°01'0 0.0
2014-Oct-31 13:33N 29°59' W 090°01'0 0.5
2014-Oct-31 12:32N 29°60' W 090°01'1 0.7
2014-Oct-31 11:33N 29°59' W 090°01'1 1.0
2014-Oct-31 10:30N 29°58' W 090°02'0 0.2
2014-Oct-31 09:25N 29°58' W 090°02'2 0.1
2014-Oct-30 20:20N 29°56' W 090°00'2 1.2
2014-Oct-30 18:33N 29°55' W 089°58'4 3.9
2014-Oct-30 17:31N 29°58' W 090°02'3 2.8
2014-Oct-30 16:32N 29°60' W 089°59'2 1.7
2014-Oct-30 15:32N 29°59' W 090°01'0 0.0
2014-Oct-30 14:33N 29°59' W 090°01'2 1.6
2014-Oct-30 13:33N 29°58' W 090°02'2 2.0
2014-Oct-30 12:32N 29°56' W 090°00'0 0.2
2014-Oct-30 11:09N 29°56' W 090°00'1 0.0
2014-Oct-29 22:31N 29°56' W 089°60'1 0.5
2014-Oct-29 21:12N 29°56' W 090°00'0 0.4
2014-Oct-29 20:26N 29°57' W 090°01'3 3.1
2014-Oct-29 19:21N 29°60' W 090°00'0 0.0
2014-Oct-29 18:32N 29°60' W 090°00'0 0.0
2014-Oct-29 17:32N 29°60' W 090°00'2 2.4
2014-Oct-29 16:33N 29°58' W 090°02'1 1.0
2014-Oct-29 15:33N 29°57' W 090°01'2 1.9
2014-Oct-29 14:33N 29°56' W 089°59'1 0.9
2014-Oct-29 13:33N 29°56' W 090°00'0 0.0
2014-Oct-29 12:33N 29°56' W 090°00'0 0.0
2014-Oct-29 11:33N 29°56' W 090°00'3 2.6
2014-Oct-29 10:28N 29°55' W 089°57'2 1.6
2014-Oct-29 09:28N 29°56' W 089°59'1 0.1
2014-Oct-28 21:25N 29°56' W 090°00'0 0.0
2014-Oct-28 20:33N 29°56' W 090°00'1 1.2
2014-Oct-28 19:32N 29°57' W 090°01'1 0.9
2014-Oct-28 18:28N 29°58' W 090°02'1 1.5
2014-Oct-28 17:32N 29°59' W 090°01'0 0.1
2014-Oct-28 16:31N 29°59' W 090°01'0 0.1
2014-Oct-28 15:33N 29°59' W 090°01'0 0.1
2014-Oct-28 14:33N 29°59' W 090°01'2 1.4
2014-Oct-28 13:29N 29°58' W 090°02'2 2.0
2014-Oct-28 12:33N 29°56' W 090°00'0 0.0
2014-Oct-28 11:33N 29°56' W 090°00'0 0.0
2014-Oct-28 10:27N 29°56' W 090°00'2 0.1
2014-Oct-27 19:17N 29°58' W 090°02'0 0.0
2014-Oct-27 18:33N 29°58' W 090°02'2 2.2
2014-Oct-27 17:30N 29°60' W 089°60'3 2.7
2014-Oct-27 16:33N 29°58' W 090°02'0 0.1
2014-Oct-27 15:24N 29°58' W 090°02'0 0.2
2014-Oct-27 14:32N 29°58' W 090°02'2 2.1
2014-Oct-27 13:30N 29°60' W 090°00'3 3.6
2014-Oct-27 12:32N 30°00' W 089°56'2 1.5
2014-Oct-27 11:09N 30°01' W 089°54'3 5.4
2014-Oct-27 10:33N 30°00' W 089°57'4 3.7
2014-Oct-27 09:24N 29°58' W 090°02'2 1.6
2014-Oct-27 08:23N 29°57' W 090°00'0 0.5
2014-Oct-27 07:33N 29°56' W 090°00'2 0.1
2014-Oct-26 06:30N 29°58' W 090°01'2 1.6
2014-Oct-26 05:33N 29°60' W 090°01'2 2.5
2014-Oct-26 04:32N 29°57' W 090°02'1 0.7
2014-Oct-26 03:32N 29°57' W 090°01'1 1.2
2014-Oct-26 02:32N 29°58' W 090°02'1 0.9
2014-Oct-26 01:32N 29°58' W 090°02'3 2.7
2014-Oct-26 00:31N 29°60' W 089°59'3 3.3
2014-Oct-25 23:33N 29°57' W 090°01'1 1.2
2014-Oct-25 22:28N 29°56' W 090°00'0 0.1
2014-Oct-25 20:18N 29°56' W 090°00'2 0.2
2014-Oct-25 07:07N 29°58' W 090°02'1 0.5
2014-Oct-25 05:32N 29°59' W 090°01'2 1.9
2014-Oct-25 04:33N 29°57' W 090°01'1 0.3
2014-Oct-25 02:10N 29°56' W 090°00'2 0.6
2014-Oct-24 22:26N 29°55' W 089°58'2 1.5
2014-Oct-24 21:03N 29°56' W 090°00'0 0.5
2014-Oct-24 20:32N 29°56' W 089°60'1 0.6
2014-Oct-24 19:33N 29°56' W 090°00'2 2.1
2014-Oct-24 18:28N 29°58' W 090°02'1 0.9
2014-Oct-24 17:34N 29°58' W 090°02'0 0.5
2014-Oct-24 16:34N 29°58' W 090°01'0 0.1
2014-Oct-24 15:33N 29°58' W 090°01'1 0.6
2014-Oct-24 14:33N 29°58' W 090°02'0 0.1
2014-Oct-24 13:14N 29°58' W 090°02'0 0.4
2014-Oct-24 12:33N 29°57' W 090°02'1 0.1
2014-Oct-24 02:16N 29°57' W 090°01'2 2.7
2014-Oct-24 01:23N 29°59' W 090°01'1 1.6
2014-Oct-24 00:32N 29°60' W 090°00'2 2.2
2014-Oct-23 23:28N 29°58' W 090°02'1 1.6
2014-Oct-23 22:33N 29°57' W 090°01'0 0.1
2014-Oct-23 19:20N 29°56' W 090°00'0 0.0
2014-Oct-23 18:29N 29°56' W 090°00'0 0.0
2014-Oct-23 17:31N 29°56' W 090°00'0 0.0
2014-Oct-23 16:33N 29°56' W 090°00'0 0.0
2014-Oct-23 15:34N 29°56' W 090°00'0 0.0
2014-Oct-23 14:33N 29°56' W 090°00'0 0.0
2014-Oct-23 12:23N 29°56' W 090°00'2 0.1
2014-Oct-22 18:29N 29°56' W 089°58'0 0.0
2014-Oct-22 17:23N 29°56' W 089°58'  

Dump ship's entire track history